Map

Track Data

SID SEASON NUMBER BASIN SUBBASIN NAME ISO_TIME NATURE LAT LON WMO_WIND WMO_PRES WMO_AGENCY TRACK_TYPE DIST2LAND LANDFALL IFLAG USA_AGENCY USA_ATCF_ID USA_LAT USA_LON USA_RECORD USA_STATUS USA_WIND USA_PRES USA_SSHS USA_R34_NE USA_R34_SE USA_R34_SW USA_R34_NW USA_R50_NE USA_R50_SE USA_R50_SW USA_R50_NW USA_R64_NE USA_R64_SE USA_R64_SW USA_R64_NW USA_POCI USA_ROCI USA_RMW USA_EYE TOKYO_LAT TOKYO_LON TOKYO_GRADE TOKYO_WIND TOKYO_PRES TOKYO_R50_DIR TOKYO_R50_LONG TOKYO_R50_SHORT TOKYO_R30_DIR TOKYO_R30_LONG TOKYO_R30_SHORT TOKYO_LAND CMA_LAT CMA_LON CMA_CAT CMA_WIND CMA_PRES HKO_LAT HKO_LON HKO_CAT HKO_WIND HKO_PRES NEWDELHI_LAT NEWDELHI_LON NEWDELHI_GRADE NEWDELHI_WIND NEWDELHI_PRES NEWDELHI_CI NEWDELHI_DP NEWDELHI_POCI REUNION_LAT REUNION_LON REUNION_TYPE REUNION_WIND REUNION_PRES REUNION_TNUM REUNION_CI REUNION_RMW REUNION_R34_NE REUNION_R34_SE REUNION_R34_SW REUNION_R34_NW REUNION_R50_NE REUNION_R50_SE REUNION_R50_SW REUNION_R50_NW REUNION_R64_NE REUNION_R64_SE REUNION_R64_SW REUNION_R64_NW BOM_LAT BOM_LON BOM_TYPE BOM_WIND BOM_PRES BOM_TNUM BOM_CI BOM_RMW BOM_R34_NE BOM_R34_SE BOM_R34_SW BOM_R34_NW BOM_R50_NE BOM_R50_SE BOM_R50_SW BOM_R50_NW BOM_R64_NE BOM_R64_SE BOM_R64_SW BOM_R64_NW BOM_ROCI BOM_POCI BOM_EYE BOM_POS_METHOD BOM_PRES_METHOD NADI_LAT NADI_LON NADI_CAT NADI_WIND NADI_PRES WELLINGTON_LAT WELLINGTON_LON WELLINGTON_WIND WELLINGTON_PRES DS824_LAT DS824_LON DS824_STAGE DS824_WIND DS824_PRES TD9636_LAT TD9636_LON TD9636_STAGE TD9636_WIND TD9636_PRES TD9635_LAT TD9635_LON TD9635_WIND TD9635_PRES TD9635_ROCI NEUMANN_LAT NEUMANN_LON NEUMANN_CLASS NEUMANN_WIND NEUMANN_PRES MLC_LAT MLC_LON MLC_CLASS MLC_WIND MLC_PRES USA_GUST BOM_GUST BOM_GUST_PER REUNION_GUST REUNION_GUST_PER USA_SEAHGT USA_SEARAD_NE USA_SEARAD_SE USA_SEARAD_SW USA_SEARAD_NW STORM_SPEED STORM_DIR
1996239N13337 1996 73 NA NA GUSTAV 1996-08-26 00:00:00 TS 12.7000 -23.0000 30 1008 hurdat_atl main 635 635 O_____________ hurdat_atl AL071996 12.7000 -23.0000 TD 30 1008 -1 11 272
1996239N13337 1996 73 NA NA GUSTAV 1996-08-26 03:00:00 TS 12.7202 -23.5424 main 686 686 P_____________ AL071996 12.7202 -23.5424 TD 30 1008 -1 11 270
1996239N13337 1996 73 NA NA GUSTAV 1996-08-26 06:00:00 TS 12.7000 -24.1000 30 1008 hurdat_atl main 747 747 O_____________ hurdat_atl AL071996 12.7000 -24.1000 TD 30 1008 -1 11 265
1996239N13337 1996 73 NA NA GUSTAV 1996-08-26 09:00:00 TS 12.6149 -24.6851 main 813 813 P_____________ AL071996 12.6149 -24.6851 TD 30 1008 -1 12 260
1996239N13337 1996 73 NA NA GUSTAV 1996-08-26 12:00:00 TS 12.5000 -25.3000 30 1008 hurdat_atl main 878 878 O_____________ hurdat_atl AL071996 12.5000 -25.3000 TD 30 1008 -1 13 260
1996239N13337 1996 73 NA NA GUSTAV 1996-08-26 15:00:00 TS 12.4000 -25.9500 main 944 944 P_____________ AL071996 12.4000 -25.9500 TD 30 1008 -1 13 261
1996239N13337 1996 73 NA NA GUSTAV 1996-08-26 18:00:00 TS 12.3000 -26.6000 30 1008 hurdat_atl main 1020 1020 O_____________ hurdat_atl AL071996 12.3000 -26.6000 TD 30 1008 -1 13 262
1996239N13337 1996 73 NA NA GUSTAV 1996-08-26 21:00:00 TS 12.2149 -27.2224 main 1086 1086 P_____________ AL071996 12.2149 -27.2224 TD 30 1008 -1 12 260
1996239N13337 1996 73 NA NA GUSTAV 1996-08-27 00:00:00 TS 12.1000 -27.8000 30 1008 hurdat_atl main 1151 1151 O_____________ hurdat_atl AL071996 12.1000 -27.8000 TD 30 1008 -1 11 255
1996239N13337 1996 73 NA NA GUSTAV 1996-08-27 03:00:00 TS 11.9297 -28.2999 main 1210 1210 P_____________ AL071996 11.9297 -28.2999 TD 30 1008 -1 11 248
1996239N13337 1996 73 NA NA GUSTAV 1996-08-27 06:00:00 TS 11.7000 -28.8000 30 1008 hurdat_atl main 1269 1269 O_____________ hurdat_atl AL071996 11.7000 -28.8000 TD 30 1008 -1 12 244
1996239N13337 1996 73 NA NA GUSTAV 1996-08-27 09:00:00 TS 11.4076 -29.4001 main 1341 1341 P_____________ AL071996 11.4076 -29.4001 TD 30 1007 -1 13 243
1996239N13337 1996 73 NA NA GUSTAV 1996-08-27 12:00:00 TS 11.1000 -30.0000 30 1007 hurdat_atl main 1413 1413 O_____________ hurdat_atl AL071996 11.1000 -30.0000 TD 30 1007 -1 13 242
1996239N13337 1996 73 NA NA GUSTAV 1996-08-27 15:00:00 TS 10.8199 -30.5299 main 1476 1476 P_____________ AL071996 10.8199 -30.5299 TD 30 1007 -1 11 243
1996239N13337 1996 73 NA NA GUSTAV 1996-08-27 18:00:00 TS 10.6000 -31.0000 30 1007 hurdat_atl main 1535 1535 O_____________ hurdat_atl AL071996 10.6000 -31.0000 TD 30 1007 -1 9 247
1996239N13337 1996 73 NA NA GUSTAV 1996-08-27 21:00:00 TS 10.4474 -31.4075 main 1584 1584 P_____________ AL071996 10.4474 -31.4075 TD 30 1006 -1 8 256
1996239N13337 1996 73 NA NA GUSTAV 1996-08-28 00:00:00 TS 10.4000 -31.8000 30 1006 hurdat_atl main 1625 1625 O_____________ hurdat_atl AL071996 10.4000 -31.8000 TD 30 1006 -1 8 271
1996239N13337 1996 73 NA NA GUSTAV 1996-08-28 03:00:00 TS 10.4550 -32.2425 main 1663 1663 P_____________ AL071996 10.4550 -32.2425 TD 32 1006 -1 9 283
1996239N13337 1996 73 NA NA GUSTAV 1996-08-28 06:00:00 TS 10.6000 -32.7000 35 1006 hurdat_atl main 1704 1694 O_____________ hurdat_atl AL071996 10.6000 -32.7000 TS 35 1006 0 10 288
1996239N13337 1996 73 NA NA GUSTAV 1996-08-28 09:00:00 TS 10.7550 -33.1576 main 1700 1690 P_____________ AL071996 10.7550 -33.1576 TS 35 1005 0 10 294
1996239N13337 1996 73 NA NA GUSTAV 1996-08-28 12:00:00 TS 11.0000 -33.6000 35 1005 hurdat_atl main 1702 1702 O_____________ hurdat_atl AL071996 11.0000 -33.6000 TS 35 1005 0 10 307
1996239N13337 1996 73 NA NA GUSTAV 1996-08-28 15:00:00 TS 11.3774 -34.0075 main 1726 1722 P_____________ AL071996 11.3774 -34.0075 TS 35 1005 0 11 316
1996239N13337 1996 73 NA NA GUSTAV 1996-08-28 18:00:00 TS 11.8000 -34.4000 35 1005 hurdat_atl main 1752 1752 O_____________ hurdat_atl AL071996 11.8000 -34.4000 TS 35 1005 0 11 316
1996239N13337 1996 73 NA NA GUSTAV 1996-08-28 21:00:00 TS 12.1649 -34.7852 main 1779 1776 P_____________ AL071996 12.1649 -34.7852 TS 37 1005 0 11 312
1996239N13337 1996 73 NA NA GUSTAV 1996-08-29 00:00:00 TS 12.5000 -35.2000 40 1005 hurdat_atl main 1798 1795 O_____________ hurdat_atl AL071996 12.5000 -35.2000 TS 40 1005 0 11 306
1996239N13337 1996 73 NA NA GUSTAV 1996-08-29 03:00:00 TS 12.8075 -35.6851 main 1816 1816 P_____________ AL071996 12.8075 -35.6851 TS 40 1005 0 11 302
1996239N13337 1996 73 NA NA GUSTAV 1996-08-29 06:00:00 TS 13.1000 -36.2000 40 1005 hurdat_atl main 1836 1833 O_____________ hurdat_atl AL071996 13.1000 -36.2000 TS 40 1005 0 12 300
1996239N13337 1996 73 NA NA GUSTAV 1996-08-29 09:00:00 TS 13.3925 -36.7151 main 1858 1856 P_____________ AL071996 13.3925 -36.7151 TS 40 1005 0 11 302
1996239N13337 1996 73 NA NA GUSTAV 1996-08-29 12:00:00 TS 13.7000 -37.2000 40 1005 hurdat_atl main 1872 1854 O_____________ hurdat_atl AL071996 13.7000 -37.2000 TS 40 1005 0 11 305
1996239N13337 1996 73 NA NA GUSTAV 1996-08-29 15:00:00 TS 14.0350 -37.6450 main 1854 1839 P_____________ AL071996 14.0350 -37.6450 TS 40 1005 0 10 312
1996239N13337 1996 73 NA NA GUSTAV 1996-08-29 18:00:00 TS 14.4000 -38.0000 40 1005 hurdat_atl main 1845 1843 O_____________ hurdat_atl AL071996 14.4000 -38.0000 TS 40 1005 0 10 324
1996239N13337 1996 73 NA NA GUSTAV 1996-08-29 21:00:00 TS 14.8074 -38.2227 main 1855 1854 P_____________ AL071996 14.8074 -38.2227 TS 37 1005 0 9 334
1996239N13337 1996 73 NA NA GUSTAV 1996-08-30 00:00:00 TS 15.2000 -38.4000 35 1005 hurdat_atl main 1866 1864 O_____________ hurdat_atl AL071996 15.2000 -38.4000 TS 35 1005 0 8 331
1996239N13337 1996 73 NA NA GUSTAV 1996-08-30 03:00:00 TS 15.5300 -38.6351 main 1872 1870 P_____________ AL071996 15.5300 -38.6351 TS 35 1005 0 8 321
1996239N13337 1996 73 NA NA GUSTAV 1996-08-30 06:00:00 TS 15.8000 -38.9000 35 1005 hurdat_atl main 1870 1861 O_____________ hurdat_atl AL071996 15.8000 -38.9000 TS 35 1005 0 7 313
1996239N13337 1996 73 NA NA GUSTAV 1996-08-30 09:00:00 TS 16.0149 -39.1702 main 1861 1854 P_____________ AL071996 16.0149 -39.1702 TS 35 1005 0 7 305
1996239N13337 1996 73 NA NA GUSTAV 1996-08-30 12:00:00 TS 16.2000 -39.5000 35 1006 hurdat_atl main 1854 1839 O_____________ hurdat_atl AL071996 16.2000 -39.5000 TS 35 1006 0 8 297
1996239N13337 1996 73 NA NA GUSTAV 1996-08-30 15:00:00 TS 16.3926 -39.9425 main 1840 1819 P_____________ AL071996 16.3926 -39.9425 TS 35 1006 0 10 295
1996239N13337 1996 73 NA NA GUSTAV 1996-08-30 18:00:00 TS 16.6000 -40.4000 35 1006 hurdat_atl main 1820 1813 O_____________ hurdat_atl AL071996 16.6000 -40.4000 TS 35 1006 0 9 299
1996239N13337 1996 73 NA NA GUSTAV 1996-08-30 21:00:00 TS 16.8349 -40.7651 main 1809 1809 P_____________ AL071996 16.8349 -40.7651 TS 35 1006 0 8 307
1996239N13337 1996 73 NA NA GUSTAV 1996-08-31 00:00:00 TS 17.1000 -41.1000 35 1007 hurdat_atl main 1814 1807 O_____________ hurdat_atl AL071996 17.1000 -41.1000 TS 35 1007 0 9 310
1996239N13337 1996 73 NA NA GUSTAV 1996-08-31 03:00:00 TS 17.3924 -41.4501 main 1814 1814 P_____________ AL071996 17.3924 -41.4501 TS 35 1007 0 9 312
1996239N13337 1996 73 NA NA GUSTAV 1996-08-31 06:00:00 TS 17.7000 -41.8000 35 1008 hurdat_atl main 1822 1819 O_____________ hurdat_atl AL071996 17.7000 -41.8000 TS 35 1008 0 9 313
1996239N13337 1996 73 NA NA GUSTAV 1996-08-31 09:00:00 TS 18.0149 -42.1500 main 1825 1825 P_____________ AL071996 18.0149 -42.1500 TS 35 1008 0 9 312
1996239N13337 1996 73 NA NA GUSTAV 1996-08-31 12:00:00 TS 18.3000 -42.5000 35 1008 hurdat_atl main 1832 1821 O_____________ hurdat_atl AL071996 18.3000 -42.5000 TS 35 1008 0 8 306
1996239N13337 1996 73 NA NA GUSTAV 1996-08-31 15:00:00 TS 18.5000 -42.8577 main 1824 1820 P_____________ AL071996 18.5000 -42.8577 TS 35 1008 0 8 301
1996239N13337 1996 73 NA NA GUSTAV 1996-08-31 18:00:00 TS 18.7000 -43.2000 35 1008 hurdat_atl main 1823 1817 O_____________ hurdat_atl AL071996 18.7000 -43.2000 TS 35 1008 0 8 309
1996239N13337 1996 73 NA NA GUSTAV 1996-08-31 21:00:00 TS 18.9849 -43.5001 main 1833 1833 P_____________ AL071996 18.9849 -43.5001 TS 35 1008 0 8 317
1996239N13337 1996 73 NA NA GUSTAV 1996-09-01 00:00:00 TS 19.3000 -43.8000 35 1008 hurdat_atl main 1844 1844 O_____________ hurdat_atl AL071996 19.3000 -43.8000 TS 35 1008 0 9 316
1996239N13337 1996 73 NA NA GUSTAV 1996-09-01 03:00:00 TS 19.5999 -44.1277 main 1856 1851 P_____________ AL071996 19.5999 -44.1277 TS 35 1008 0 9 312
1996239N13337 1996 73 NA NA GUSTAV 1996-09-01 06:00:00 TS 19.9000 -44.5000 35 1008 hurdat_atl main 1864 1864 O_____________ hurdat_atl AL071996 19.9000 -44.5000 TS 35 1008 0 10 310
1996239N13337 1996 73 NA NA GUSTAV 1996-09-01 09:00:00 TS 20.2149 -44.9200 main 1874 1869 P_____________ AL071996 20.2149 -44.9200 TS 35 1008 0 10 305
1996239N13337 1996 73 NA NA GUSTAV 1996-09-01 12:00:00 TS 20.5000 -45.4000 35 1008 hurdat_atl main 1880 1875 O_____________ hurdat_atl AL071996 20.5000 -45.4000 TS 35 1008 0 11 298
1996239N13337 1996 73 NA NA GUSTAV 1996-09-01 15:00:00 TS 20.7149 -45.9278 main 1878 1871 P_____________ AL071996 20.7149 -45.9278 TS 32 1008 -1 11 291
1996239N13337 1996 73 NA NA GUSTAV 1996-09-01 18:00:00 TS 20.9000 -46.5000 30 1008 hurdat_atl main 1873 1864 O_____________ hurdat_atl AL071996 20.9000 -46.5000 TD 30 1008 -1 12 289
1996239N13337 1996 73 NA NA GUSTAV 1996-09-01 21:00:00 TS 21.0954 -47.0946 main 1865 1849 P_____________ AL071996 21.0954 -47.0946 TD 30 1008 -1 12 290
1996239N13337 1996 73 NA NA GUSTAV 1996-09-02 00:00:00 TS 21.3000 -47.7000 30 1008 hurdat_atl main 1849 O_____________ hurdat_atl AL071996 21.3000 -47.7000 TD 30 1008 -1 12 290

About IBTrACS Database

This database is a web-friendly format of International Best Track Archive for Climate Stewardship (IBTrACS), a global best track data archive curated by NOAA dating back to 1842.

Updated: 2021-12-01